sensor_id;sensor_type;location;lat;lon;timestamp;P1;durP1;ratioP1;P2;durP2;ratioP2
3573;SDS011;1801;51.050;6.246;2023-08-06T00:01:55;4.23;;;2.60;;
3573;SDS011;1801;51.050;6.246;2023-08-06T00:04:20;5.87;;;3.90;;
3573;SDS011;1801;51.050;6.246;2023-08-06T00:06:45;6.93;;;3.53;;
3573;SDS011;1801;51.050;6.246;2023-08-06T00:09:10;7.40;;;3.10;;
3573;SDS011;1801;51.050;6.246;2023-08-06T00:11:35;2.10;;;1.87;;
3573;SDS011;1801;51.050;6.246;2023-08-06T00:14:01;3.63;;;1.80;;
3573;SDS011;1801;51.050;6.246;2023-08-06T00:16:26;2.90;;;2.30;;
3573;SDS011;1801;51.050;6.246;2023-08-06T00:18:51;4.73;;;2.27;;
3573;SDS011;1801;51.050;6.246;2023-08-06T00:21:16;5.13;;;2.83;;
3573;SDS011;1801;51.050;6.246;2023-08-06T00:23:41;4.00;;;2.60;;
3573;SDS011;1801;51.050;6.246;2023-08-06T00:26:07;8.43;;;2.80;;
3573;SDS011;1801;51.050;6.246;2023-08-06T00:28:32;7.77;;;2.83;;
3573;SDS011;1801;51.050;6.246;2023-08-06T00:30:57;3.77;;;2.27;;
3573;SDS011;1801;51.050;6.246;2023-08-06T00:33:23;3.30;;;2.50;;
3573;SDS011;1801;51.050;6.246;2023-08-06T00:35:48;3.53;;;2.50;;
3573;SDS011;1801;51.050;6.246;2023-08-06T00:38:13;5.90;;;2.13;;
3573;SDS011;1801;51.050;6.246;2023-08-06T00:40:38;4.57;;;2.60;;
3573;SDS011;1801;51.050;6.246;2023-08-06T00:43:04;2.80;;;2.10;;
3573;SDS011;1801;51.050;6.246;2023-08-06T00:45:29;6.90;;;2.10;;
3573;SDS011;1801;51.050;6.246;2023-08-06T00:47:55;5.37;;;2.77;;
3573;SDS011;1801;51.050;6.246;2023-08-06T00:50:20;3.63;;;2.33;;
3573;SDS011;1801;51.050;6.246;2023-08-06T00:52:47;4.10;;;2.70;;
3573;SDS011;1801;51.050;6.246;2023-08-06T00:55:12;3.40;;;2.40;;
3573;SDS011;1801;51.050;6.246;2023-08-06T00:57:37;3.70;;;2.20;;
3573;SDS011;1801;51.050;6.246;2023-08-06T01:00:03;3.63;;;2.50;;
3573;SDS011;1801;51.050;6.246;2023-08-06T01:02:29;8.70;;;2.67;;
3573;SDS011;1801;51.050;6.246;2023-08-06T01:04:54;5.57;;;2.70;;
3573;SDS011;1801;51.050;6.246;2023-08-06T01:07:35;3.90;;;2.90;;
3573;SDS011;1801;51.050;6.246;2023-08-06T01:17:23;3.40;;;2.30;;
3573;SDS011;1801;51.050;6.246;2023-08-06T01:19:49;2.60;;;2.40;;
3573;SDS011;1801;51.050;6.246;2023-08-06T01:22:14;4.83;;;2.27;;
3573;SDS011;1801;51.050;6.246;2023-08-06T01:24:39;6.77;;;2.37;;
3573;SDS011;1801;51.050;6.246;2023-08-06T01:27:06;4.70;;;2.43;;
3573;SDS011;1801;51.050;6.246;2023-08-06T01:29:35;4.10;;;1.73;;
3573;SDS011;1801;51.050;6.246;2023-08-06T01:32:04;8.10;;;2.23;;
3573;SDS011;1801;51.050;6.246;2023-08-06T01:34:31;4.90;;;1.80;;
3573;SDS011;1801;51.050;6.246;2023-08-06T01:36:57;4.30;;;2.40;;
3573;SDS011;1801;51.050;6.246;2023-08-06T01:39:24;3.37;;;2.03;;
3573;SDS011;1801;51.050;6.246;2023-08-06T01:41:49;4.57;;;2.40;;
3573;SDS011;1801;51.050;6.246;2023-08-06T01:44:15;3.10;;;1.83;;
3573;SDS011;1801;51.050;6.246;2023-08-06T01:46:40;3.40;;;2.00;;
3573;SDS011;1801;51.050;6.246;2023-08-06T01:49:05;6.27;;;1.90;;
3573;SDS011;1801;51.050;6.246;2023-08-06T01:51:30;2.30;;;1.53;;
3573;SDS011;1801;51.050;6.246;2023-08-06T01:53:56;2.27;;;1.27;;
3573;SDS011;1801;51.050;6.246;2023-08-06T01:56:21;1.70;;;1.37;;
3573;SDS011;1801;51.050;6.246;2023-08-06T01:58:46;1.77;;;1.60;;
3573;SDS011;1801;51.050;6.246;2023-08-06T02:01:11;1.57;;;1.23;;
3573;SDS011;1801;51.050;6.246;2023-08-06T02:03:36;4.33;;;1.97;;
3573;SDS011;1801;51.050;6.246;2023-08-06T02:06:02;1.57;;;1.10;;
3573;SDS011;1801;51.050;6.246;2023-08-06T02:08:27;1.73;;;1.20;;
3573;SDS011;1801;51.050;6.246;2023-08-06T02:10:52;2.30;;;1.70;;
3573;SDS011;1801;51.050;6.246;2023-08-06T02:13:18;4.37;;;2.30;;
3573;SDS011;1801;51.050;6.246;2023-08-06T02:15:44;2.83;;;1.70;;
3573;SDS011;1801;51.050;6.246;2023-08-06T02:18:09;2.37;;;1.57;;
3573;SDS011;1801;51.050;6.246;2023-08-06T02:20:35;3.90;;;2.20;;
3573;SDS011;1801;51.050;6.246;2023-08-06T02:23:00;2.53;;;1.60;;
3573;SDS011;1801;51.050;6.246;2023-08-06T02:25:25;1.90;;;1.20;;
3573;SDS011;1801;51.050;6.246;2023-08-06T02:27:50;1.77;;;1.40;;
3573;SDS011;1801;51.050;6.246;2023-08-06T02:30:15;8.13;;;2.13;;
3573;SDS011;1801;51.050;6.246;2023-08-06T02:32:41;4.33;;;1.40;;
3573;SDS011;1801;51.050;6.246;2023-08-06T02:35:06;1.43;;;1.00;;
3573;SDS011;1801;51.050;6.246;2023-08-06T02:37:33;5.60;;;1.43;;
3573;SDS011;1801;51.050;6.246;2023-08-06T02:39:58;2.90;;;1.50;;
3573;SDS011;1801;51.050;6.246;2023-08-06T02:42:23;2.53;;;1.67;;
3573;SDS011;1801;51.050;6.246;2023-08-06T02:44:50;3.07;;;1.43;;
3573;SDS011;1801;51.050;6.246;2023-08-06T02:47:15;2.70;;;1.10;;
3573;SDS011;1801;51.050;6.246;2023-08-06T02:49:40;1.10;;;1.00;;
3573;SDS011;1801;51.050;6.246;2023-08-06T02:52:06;3.80;;;1.30;;
3573;SDS011;1801;51.050;6.246;2023-08-06T02:54:31;3.10;;;1.30;;
3573;SDS011;1801;51.050;6.246;2023-08-06T02:56:56;4.87;;;1.43;;
3573;SDS011;1801;51.050;6.246;2023-08-06T02:59:21;1.80;;;1.17;;
3573;SDS011;1801;51.050;6.246;2023-08-06T03:01:46;4.13;;;1.00;;
3573;SDS011;1801;51.050;6.246;2023-08-06T03:04:12;3.43;;;1.00;;
3573;SDS011;1801;51.050;6.246;2023-08-06T03:06:37;0.80;;;0.80;;
3573;SDS011;1801;51.050;6.246;2023-08-06T03:09:02;2.80;;;1.33;;
3573;SDS011;1801;51.050;6.246;2023-08-06T03:11:27;4.10;;;1.27;;
3573;SDS011;1801;51.050;6.246;2023-08-06T03:13:53;2.43;;;0.97;;
3573;SDS011;1801;51.050;6.246;2023-08-06T03:16:18;1.60;;;0.87;;
3573;SDS011;1801;51.050;6.246;2023-08-06T03:18:43;9.53;;;1.00;;
3573;SDS011;1801;51.050;6.246;2023-08-06T03:21:08;1.30;;;1.20;;
3573;SDS011;1801;51.050;6.246;2023-08-06T03:23:33;3.03;;;1.50;;
3573;SDS011;1801;51.050;6.246;2023-08-06T03:26:02;2.10;;;0.90;;
3573;SDS011;1801;51.050;6.246;2023-08-06T03:28:27;3.60;;;1.17;;
3573;SDS011;1801;51.050;6.246;2023-08-06T03:30:59;3.97;;;1.30;;
3573;SDS011;1801;51.050;6.246;2023-08-06T03:33:25;1.80;;;1.03;;
3573;SDS011;1801;51.050;6.246;2023-08-06T03:35:50;1.60;;;1.40;;
3573;SDS011;1801;51.050;6.246;2023-08-06T03:38:15;3.87;;;1.10;;
3573;SDS011;1801;51.050;6.246;2023-08-06T03:40:40;6.53;;;3.33;;
3573;SDS011;1801;51.050;6.246;2023-08-06T03:43:05;2.07;;;1.17;;
3573;SDS011;1801;51.050;6.246;2023-08-06T03:45:31;3.80;;;1.40;;
3573;SDS011;1801;51.050;6.246;2023-08-06T03:47:56;1.93;;;1.50;;
3573;SDS011;1801;51.050;6.246;2023-08-06T03:50:21;3.33;;;1.50;;
3573;SDS011;1801;51.050;6.246;2023-08-06T03:52:46;1.13;;;0.90;;
3573;SDS011;1801;51.050;6.246;2023-08-06T03:55:11;2.10;;;1.40;;
3573;SDS011;1801;51.050;6.246;2023-08-06T03:57:37;2.97;;;2.30;;
3573;SDS011;1801;51.050;6.246;2023-08-06T04:00:02;2.67;;;1.27;;
3573;SDS011;1801;51.050;6.246;2023-08-06T04:02:28;5.40;;;2.17;;
3573;SDS011;1801;51.050;6.246;2023-08-06T04:04:53;5.30;;;1.40;;
3573;SDS011;1801;51.050;6.246;2023-08-06T04:07:19;2.20;;;1.43;;
3573;SDS011;1801;51.050;6.246;2023-08-06T04:09:54;7.40;;;1.50;;
3573;SDS011;1801;51.050;6.246;2023-08-06T04:12:19;3.43;;;1.53;;
3573;SDS011;1801;51.050;6.246;2023-08-06T04:14:44;4.40;;;1.60;;
3573;SDS011;1801;51.050;6.246;2023-08-06T04:17:10;2.33;;;1.67;;
3573;SDS011;1801;51.050;6.246;2023-08-06T04:19:35;5.03;;;2.33;;
3573;SDS011;1801;51.050;6.246;2023-08-06T04:22:00;3.13;;;1.87;;
3573;SDS011;1801;51.050;6.246;2023-08-06T04:24:25;9.73;;;2.23;;
3573;SDS011;1801;51.050;6.246;2023-08-06T04:26:51;2.10;;;1.60;;
3573;SDS011;1801;51.050;6.246;2023-08-06T04:29:16;5.67;;;2.20;;
3573;SDS011;1801;51.050;6.246;2023-08-06T04:31:41;2.80;;;2.20;;
3573;SDS011;1801;51.050;6.246;2023-08-06T04:34:06;12.00;;;2.17;;
3573;SDS011;1801;51.050;6.246;2023-08-06T04:36:34;2.90;;;1.77;;
3573;SDS011;1801;51.050;6.246;2023-08-06T04:38:59;5.73;;;1.97;;
3573;SDS011;1801;51.050;6.246;2023-08-06T04:41:24;5.97;;;2.10;;
3573;SDS011;1801;51.050;6.246;2023-08-06T04:43:49;2.70;;;2.03;;
3573;SDS011;1801;51.050;6.246;2023-08-06T04:46:14;3.37;;;2.00;;
3573;SDS011;1801;51.050;6.246;2023-08-06T04:48:39;6.63;;;1.77;;
3573;SDS011;1801;51.050;6.246;2023-08-06T04:51:05;4.73;;;2.00;;
3573;SDS011;1801;51.050;6.246;2023-08-06T04:53:30;5.90;;;2.60;;
3573;SDS011;1801;51.050;6.246;2023-08-06T04:55:55;4.10;;;2.20;;
3573;SDS011;1801;51.050;6.246;2023-08-06T04:58:20;3.00;;;2.00;;
3573;SDS011;1801;51.050;6.246;2023-08-06T05:00:45;2.50;;;1.97;;
3573;SDS011;1801;51.050;6.246;2023-08-06T05:03:11;3.20;;;2.00;;
3573;SDS011;1801;51.050;6.246;2023-08-06T05:05:36;6.77;;;2.27;;
3573;SDS011;1801;51.050;6.246;2023-08-06T05:08:01;2.83;;;1.87;;
3573;SDS011;1801;51.050;6.246;2023-08-06T05:10:26;2.70;;;1.87;;
3573;SDS011;1801;51.050;6.246;2023-08-06T05:12:52;2.20;;;1.90;;
3573;SDS011;1801;51.050;6.246;2023-08-06T05:15:17;4.90;;;2.00;;
3573;SDS011;1801;51.050;6.246;2023-08-06T05:17:43;4.33;;;2.30;;
3573;SDS011;1801;51.050;6.246;2023-08-06T05:20:08;2.93;;;2.00;;
3573;SDS011;1801;51.050;6.246;2023-08-06T05:22:33;3.70;;;2.10;;
3573;SDS011;1801;51.050;6.246;2023-08-06T05:24:59;4.40;;;2.47;;
3573;SDS011;1801;51.050;6.246;2023-08-06T05:27:24;4.13;;;2.20;;
3573;SDS011;1801;51.050;6.246;2023-08-06T05:29:49;1.70;;;1.60;;
3573;SDS011;1801;51.050;6.246;2023-08-06T05:32:14;3.13;;;1.93;;
3573;SDS011;1801;51.050;6.246;2023-08-06T05:34:39;3.53;;;1.90;;
3573;SDS011;1801;51.050;6.246;2023-08-06T05:37:06;2.63;;;1.90;;
3573;SDS011;1801;51.050;6.246;2023-08-06T05:39:31;2.60;;;2.20;;
3573;SDS011;1801;51.050;6.246;2023-08-06T05:41:56;5.33;;;2.27;;
3573;SDS011;1801;51.050;6.246;2023-08-06T05:44:22;3.00;;;1.73;;
3573;SDS011;1801;51.050;6.246;2023-08-06T05:46:48;3.07;;;2.00;;
3573;SDS011;1801;51.050;6.246;2023-08-06T05:49:14;3.70;;;1.97;;
3573;SDS011;1801;51.050;6.246;2023-08-06T05:51:39;2.37;;;2.00;;
3573;SDS011;1801;51.050;6.246;2023-08-06T05:54:07;4.63;;;2.17;;
3573;SDS011;1801;51.050;6.246;2023-08-06T05:56:32;4.67;;;2.70;;
3573;SDS011;1801;51.050;6.246;2023-08-06T05:58:57;5.60;;;1.80;;
3573;SDS011;1801;51.050;6.246;2023-08-06T06:01:22;4.40;;;2.47;;
3573;SDS011;1801;51.050;6.246;2023-08-06T06:03:48;5.17;;;2.37;;
3573;SDS011;1801;51.050;6.246;2023-08-06T06:06:13;4.63;;;2.00;;
3573;SDS011;1801;51.050;6.246;2023-08-06T06:08:38;1.60;;;1.40;;
3573;SDS011;1801;51.050;6.246;2023-08-06T06:11:03;3.30;;;1.87;;
3573;SDS011;1801;51.050;6.246;2023-08-06T06:13:28;1.43;;;1.30;;
3573;SDS011;1801;51.050;6.246;2023-08-06T06:15:54;2.80;;;1.70;;
3573;SDS011;1801;51.050;6.246;2023-08-06T06:18:20;2.40;;;2.10;;
3573;SDS011;1801;51.050;6.246;2023-08-06T06:20:45;3.33;;;1.90;;
3573;SDS011;1801;51.050;6.246;2023-08-06T06:23:10;3.27;;;1.73;;
3573;SDS011;1801;51.050;6.246;2023-08-06T06:25:35;3.13;;;2.20;;
3573;SDS011;1801;51.050;6.246;2023-08-06T06:28:00;3.07;;;1.60;;
3573;SDS011;1801;51.050;6.246;2023-08-06T06:30:25;3.70;;;1.77;;
3573;SDS011;1801;51.050;6.246;2023-08-06T06:32:51;2.60;;;1.50;;
3573;SDS011;1801;51.050;6.246;2023-08-06T06:35:16;6.87;;;2.20;;
3573;SDS011;1801;51.050;6.246;2023-08-06T06:37:41;1.63;;;1.50;;
3573;SDS011;1801;51.050;6.246;2023-08-06T06:40:06;2.50;;;2.30;;
3573;SDS011;1801;51.050;6.246;2023-08-06T06:42:32;3.30;;;1.70;;
3573;SDS011;1801;51.050;6.246;2023-08-06T06:44:57;4.20;;;1.90;;
3573;SDS011;1801;51.050;6.246;2023-08-06T06:47:22;1.43;;;1.33;;
3573;SDS011;1801;51.050;6.246;2023-08-06T06:49:47;2.70;;;1.30;;
3573;SDS011;1801;51.050;6.246;2023-08-06T06:52:12;4.10;;;2.00;;
3573;SDS011;1801;51.050;6.246;2023-08-06T06:54:38;2.00;;;1.40;;
3573;SDS011;1801;51.050;6.246;2023-08-06T06:57:03;3.07;;;1.40;;
3573;SDS011;1801;51.050;6.246;2023-08-06T06:59:28;1.67;;;1.30;;
3573;SDS011;1801;51.050;6.246;2023-08-06T07:01:54;1.40;;;1.30;;
3573;SDS011;1801;51.050;6.246;2023-08-06T07:04:19;1.47;;;1.30;;
3573;SDS011;1801;51.050;6.246;2023-08-06T07:06:44;3.53;;;1.70;;
3573;SDS011;1801;51.050;6.246;2023-08-06T07:09:09;2.20;;;1.70;;
3573;SDS011;1801;51.050;6.246;2023-08-06T07:11:35;1.30;;;1.13;;
3573;SDS011;1801;51.050;6.246;2023-08-06T07:14:00;2.50;;;1.20;;
3573;SDS011;1801;51.050;6.246;2023-08-06T07:16:25;3.10;;;1.13;;
3573;SDS011;1801;51.050;6.246;2023-08-06T07:18:51;2.57;;;1.50;;
3573;SDS011;1801;51.050;6.246;2023-08-06T07:21:17;1.40;;;1.20;;
3573;SDS011;1801;51.050;6.246;2023-08-06T07:23:42;2.10;;;1.27;;
3573;SDS011;1801;51.050;6.246;2023-08-06T07:26:08;2.00;;;1.03;;
3573;SDS011;1801;51.050;6.246;2023-08-06T07:28:34;1.20;;;1.10;;
3573;SDS011;1801;51.050;6.246;2023-08-06T07:30:59;1.63;;;1.27;;
3573;SDS011;1801;51.050;6.246;2023-08-06T07:33:24;2.47;;;1.27;;
3573;SDS011;1801;51.050;6.246;2023-08-06T07:35:49;1.93;;;1.13;;
3573;SDS011;1801;51.050;6.246;2023-08-06T07:38:14;2.30;;;0.83;;
3573;SDS011;1801;51.050;6.246;2023-08-06T07:40:40;3.67;;;0.93;;
3573;SDS011;1801;51.050;6.246;2023-08-06T07:43:05;2.47;;;1.27;;
3573;SDS011;1801;51.050;6.246;2023-08-06T07:45:34;0.80;;;0.80;;
3573;SDS011;1801;51.050;6.246;2023-08-06T07:48:02;2.53;;;2.10;;
3573;SDS011;1801;51.050;6.246;2023-08-06T07:50:30;2.57;;;1.83;;
3573;SDS011;1801;51.050;6.246;2023-08-06T07:52:56;3.07;;;1.30;;
3573;SDS011;1801;51.050;6.246;2023-08-06T07:55:21;2.20;;;1.40;;
3573;SDS011;1801;51.050;6.246;2023-08-06T07:57:46;2.07;;;1.40;;
3573;SDS011;1801;51.050;6.246;2023-08-06T08:00:11;1.70;;;1.03;;
3573;SDS011;1801;51.050;6.246;2023-08-06T08:02:36;1.90;;;1.20;;
3573;SDS011;1801;51.050;6.246;2023-08-06T08:05:02;1.93;;;1.10;;
3573;SDS011;1801;51.050;6.246;2023-08-06T08:07:27;1.77;;;1.50;;
3573;SDS011;1801;51.050;6.246;2023-08-06T08:09:55;4.17;;;1.00;;
3573;SDS011;1801;51.050;6.246;2023-08-06T08:12:20;1.57;;;0.97;;
3573;SDS011;1801;51.050;6.246;2023-08-06T08:14:45;5.83;;;1.20;;
3573;SDS011;1801;51.050;6.246;2023-08-06T08:17:10;9.70;;;1.50;;
3573;SDS011;1801;51.050;6.246;2023-08-06T08:19:36;0.97;;;0.87;;
3573;SDS011;1801;51.050;6.246;2023-08-06T08:22:01;8.03;;;1.30;;
3573;SDS011;1801;51.050;6.246;2023-08-06T08:24:27;2.43;;;1.20;;
3573;SDS011;1801;51.050;6.246;2023-08-06T08:26:52;9.13;;;1.43;;
3573;SDS011;1801;51.050;6.246;2023-08-06T08:29:19;5.30;;;2.43;;
3573;SDS011;1801;51.050;6.246;2023-08-06T08:31:44;6.47;;;2.70;;
3573;SDS011;1801;51.050;6.246;2023-08-06T08:34:09;6.63;;;3.10;;
3573;SDS011;1801;51.050;6.246;2023-08-06T08:36:34;9.30;;;4.57;;
3573;SDS011;1801;51.050;6.246;2023-08-06T08:39:00;4.63;;;2.60;;
3573;SDS011;1801;51.050;6.246;2023-08-06T08:41:27;5.83;;;3.07;;
3573;SDS011;1801;51.050;6.246;2023-08-06T08:43:52;8.27;;;3.30;;
3573;SDS011;1801;51.050;6.246;2023-08-06T08:46:19;8.70;;;3.90;;
3573;SDS011;1801;51.050;6.246;2023-08-06T08:48:44;9.63;;;4.97;;
3573;SDS011;1801;51.050;6.246;2023-08-06T08:51:09;4.40;;;1.33;;
3573;SDS011;1801;51.050;6.246;2023-08-06T08:53:35;2.10;;;1.57;;
3573;SDS011;1801;51.050;6.246;2023-08-06T08:56:03;1.50;;;1.40;;
3573;SDS011;1801;51.050;6.246;2023-08-06T08:58:29;8.37;;;1.73;;
3573;SDS011;1801;51.050;6.246;2023-08-06T09:00:54;3.83;;;2.57;;
3573;SDS011;1801;51.050;6.246;2023-08-06T09:03:19;5.33;;;2.73;;
3573;SDS011;1801;51.050;6.246;2023-08-06T09:05:45;4.40;;;2.83;;
3573;SDS011;1801;51.050;6.246;2023-08-06T09:08:12;4.27;;;3.50;;
3573;SDS011;1801;51.050;6.246;2023-08-06T09:10:40;2.20;;;2.00;;
3573;SDS011;1801;51.050;6.246;2023-08-06T09:13:06;3.30;;;2.57;;
3573;SDS011;1801;51.050;6.246;2023-08-06T09:15:31;3.17;;;2.70;;
3573;SDS011;1801;51.050;6.246;2023-08-06T09:17:57;5.60;;;2.87;;
3573;SDS011;1801;51.050;6.246;2023-08-06T09:20:22;2.90;;;2.50;;
3573;SDS011;1801;51.050;6.246;2023-08-06T09:22:47;3.17;;;2.70;;
3573;SDS011;1801;51.050;6.246;2023-08-06T09:25:23;3.80;;;2.70;;
3573;SDS011;1801;51.050;6.246;2023-08-06T09:27:49;2.40;;;1.80;;
3573;SDS011;1801;51.050;6.246;2023-08-06T09:30:27;2.80;;;2.03;;
3573;SDS011;1801;51.050;6.246;2023-08-06T09:32:53;4.60;;;3.37;;
3573;SDS011;1801;51.050;6.246;2023-08-06T09:35:18;3.50;;;2.40;;
3573;SDS011;1801;51.050;6.246;2023-08-06T09:37:44;3.53;;;2.40;;
3573;SDS011;1801;51.050;6.246;2023-08-06T09:40:23;7.37;;;2.10;;
3573;SDS011;1801;51.050;6.246;2023-08-06T09:42:49;4.50;;;2.50;;
3573;SDS011;1801;51.050;6.246;2023-08-06T09:45:15;3.80;;;2.60;;
3573;SDS011;1801;51.050;6.246;2023-08-06T09:47:41;5.53;;;3.03;;
3573;SDS011;1801;51.050;6.246;2023-08-06T09:50:06;6.10;;;2.73;;
3573;SDS011;1801;51.050;6.246;2023-08-06T09:52:39;12.10;;;2.90;;
3573;SDS011;1801;51.050;6.246;2023-08-06T09:55:05;6.07;;;3.70;;
3573;SDS011;1801;51.050;6.246;2023-08-06T09:57:30;5.50;;;2.40;;
3573;SDS011;1801;51.050;6.246;2023-08-06T09:59:56;9.93;;;2.00;;
3573;SDS011;1801;51.050;6.246;2023-08-06T10:02:21;3.27;;;2.43;;
3573;SDS011;1801;51.050;6.246;2023-08-06T10:04:49;3.63;;;2.00;;
3573;SDS011;1801;51.050;6.246;2023-08-06T10:07:15;5.70;;;2.40;;
3573;SDS011;1801;51.050;6.246;2023-08-06T10:09:42;6.90;;;2.67;;
3573;SDS011;1801;51.050;6.246;2023-08-06T10:12:07;7.93;;;3.00;;
3573;SDS011;1801;51.050;6.246;2023-08-06T10:14:33;8.83;;;2.80;;
3573;SDS011;1801;51.050;6.246;2023-08-06T10:17:00;8.77;;;2.53;;
3573;SDS011;1801;51.050;6.246;2023-08-06T10:19:25;5.80;;;1.97;;
3573;SDS011;1801;51.050;6.246;2023-08-06T10:24:48;6.23;;;2.60;;
3573;SDS011;1801;51.050;6.246;2023-08-06T10:27:13;7.77;;;2.30;;
3573;SDS011;1801;51.050;6.246;2023-08-06T10:29:39;7.13;;;2.33;;
3573;SDS011;1801;51.050;6.246;2023-08-06T10:32:04;3.57;;;2.40;;
3573;SDS011;1801;51.050;6.246;2023-08-06T10:37:16;3.50;;;2.40;;
3573;SDS011;1801;51.050;6.246;2023-08-06T10:39:52;5.87;;;2.93;;
3573;SDS011;1801;51.050;6.246;2023-08-06T10:42:21;5.60;;;2.87;;
3573;SDS011;1801;51.050;6.246;2023-08-06T10:47:30;7.93;;;2.73;;
3573;SDS011;1801;51.050;6.246;2023-08-06T10:50:02;4.83;;;1.67;;
3573;SDS011;1801;51.050;6.246;2023-08-06T10:52:28;4.83;;;1.73;;
3573;SDS011;1801;51.050;6.246;2023-08-06T10:54:54;9.27;;;2.37;;
3573;SDS011;1801;51.050;6.246;2023-08-06T10:57:19;3.97;;;2.37;;
3573;SDS011;1801;51.050;6.246;2023-08-06T10:59:44;4.40;;;1.70;;
3573;SDS011;1801;51.050;6.246;2023-08-06T11:02:09;4.73;;;1.90;;
3573;SDS011;1801;51.050;6.246;2023-08-06T11:04:35;5.77;;;2.10;;
3573;SDS011;1801;51.050;6.246;2023-08-06T11:07:00;5.23;;;1.87;;
3573;SDS011;1801;51.050;6.246;2023-08-06T11:09:26;6.23;;;1.87;;
3573;SDS011;1801;51.050;6.246;2023-08-06T11:11:51;3.33;;;1.47;;
3573;SDS011;1801;51.050;6.246;2023-08-06T11:14:16;11.83;;;2.33;;
3573;SDS011;1801;51.050;6.246;2023-08-06T11:16:42;7.93;;;1.90;;
3573;SDS011;1801;51.050;6.246;2023-08-06T11:19:07;10.13;;;2.13;;
3573;SDS011;1801;51.050;6.246;2023-08-06T11:21:33;4.13;;;1.83;;
3573;SDS011;1801;51.050;6.246;2023-08-06T11:23:58;5.20;;;3.90;;
3573;SDS011;1801;51.050;6.246;2023-08-06T11:26:23;12.40;;;1.33;;
3573;SDS011;1801;51.050;6.246;2023-08-06T11:28:49;2.67;;;1.50;;
3573;SDS011;1801;51.050;6.246;2023-08-06T11:31:20;4.77;;;2.17;;
3573;SDS011;1801;51.050;6.246;2023-08-06T11:33:46;1.70;;;1.60;;
3573;SDS011;1801;51.050;6.246;2023-08-06T11:36:11;5.73;;;1.63;;
3573;SDS011;1801;51.050;6.246;2023-08-06T11:38:36;5.63;;;1.23;;
3573;SDS011;1801;51.050;6.246;2023-08-06T11:41:01;3.50;;;1.73;;
3573;SDS011;1801;51.050;6.246;2023-08-06T11:43:29;1.97;;;1.10;;
3573;SDS011;1801;51.050;6.246;2023-08-06T11:45:55;3.63;;;1.70;;
3573;SDS011;1801;51.050;6.246;2023-08-06T11:48:21;7.40;;;2.63;;
3573;SDS011;1801;51.050;6.246;2023-08-06T11:50:46;6.63;;;1.60;;
3573;SDS011;1801;51.050;6.246;2023-08-06T11:53:12;15.63;;;2.53;;
3573;SDS011;1801;51.050;6.246;2023-08-06T11:55:37;6.50;;;2.00;;
3573;SDS011;1801;51.050;6.246;2023-08-06T11:58:03;8.03;;;2.30;;
3573;SDS011;1801;51.050;6.246;2023-08-06T12:00:29;6.33;;;2.47;;
3573;SDS011;1801;51.050;6.246;2023-08-06T12:02:54;2.53;;;1.70;;
3573;SDS011;1801;51.050;6.246;2023-08-06T12:05:21;6.53;;;2.47;;
3573;SDS011;1801;51.050;6.246;2023-08-06T12:07:49;4.03;;;2.03;;
3573;SDS011;1801;51.050;6.246;2023-08-06T12:10:15;16.77;;;3.40;;
3573;SDS011;1801;51.050;6.246;2023-08-06T12:12:40;6.93;;;3.00;;
3573;SDS011;1801;51.050;6.246;2023-08-06T12:15:06;10.13;;;3.67;;
3573;SDS011;1801;51.050;6.246;2023-08-06T12:17:31;7.47;;;2.63;;
3573;SDS011;1801;51.050;6.246;2023-08-06T12:19:57;5.47;;;3.63;;
3573;SDS011;1801;51.050;6.246;2023-08-06T12:22:22;6.50;;;3.20;;
3573;SDS011;1801;51.050;6.246;2023-08-06T12:24:47;9.80;;;4.23;;
3573;SDS011;1801;51.050;6.246;2023-08-06T12:27:12;10.10;;;3.93;;
3573;SDS011;1801;51.050;6.246;2023-08-06T12:29:41;7.40;;;4.00;;
3573;SDS011;1801;51.050;6.246;2023-08-06T12:32:08;14.13;;;4.37;;
3573;SDS011;1801;51.050;6.246;2023-08-06T12:34:33;10.33;;;3.43;;
3573;SDS011;1801;51.050;6.246;2023-08-06T12:36:58;11.10;;;3.97;;
3573;SDS011;1801;51.050;6.246;2023-08-06T12:39:23;6.90;;;3.80;;
3573;SDS011;1801;51.050;6.246;2023-08-06T12:41:49;6.13;;;4.17;;
3573;SDS011;1801;51.050;6.246;2023-08-06T12:44:14;5.27;;;3.63;;
3573;SDS011;1801;51.050;6.246;2023-08-06T12:46:39;9.27;;;4.30;;
3573;SDS011;1801;51.050;6.246;2023-08-06T12:49:04;8.07;;;2.70;;
3573;SDS011;1801;51.050;6.246;2023-08-06T12:51:30;7.00;;;3.80;;
3573;SDS011;1801;51.050;6.246;2023-08-06T12:53:56;4.70;;;3.20;;
3573;SDS011;1801;51.050;6.246;2023-08-06T12:56:21;7.07;;;2.95;;
3573;SDS011;1801;51.050;6.246;2023-08-06T12:58:46;6.13;;;4.17;;
3573;SDS011;1801;51.050;6.246;2023-08-06T13:01:11;18.17;;;4.33;;
3573;SDS011;1801;51.050;6.246;2023-08-06T13:03:36;4.30;;;3.30;;
3573;SDS011;1801;51.050;6.246;2023-08-06T13:06:01;6.40;;;3.20;;
3573;SDS011;1801;51.050;6.246;2023-08-06T13:08:27;9.93;;;3.60;;
3573;SDS011;1801;51.050;6.246;2023-08-06T13:10:52;9.80;;;3.07;;
3573;SDS011;1801;51.050;6.246;2023-08-06T13:13:17;5.20;;;2.33;;
3573;SDS011;1801;51.050;6.246;2023-08-06T13:15:42;4.53;;;2.47;;
3573;SDS011;1801;51.050;6.246;2023-08-06T13:18:07;4.63;;;1.93;;
3573;SDS011;1801;51.050;6.246;2023-08-06T13:20:32;7.70;;;1.97;;
3573;SDS011;1801;51.050;6.246;2023-08-06T13:22:58;1.80;;;1.43;;
3573;SDS011;1801;51.050;6.246;2023-08-06T13:25:23;11.77;;;1.80;;
3573;SDS011;1801;51.050;6.246;2023-08-06T13:27:48;8.20;;;2.13;;
3573;SDS011;1801;51.050;6.246;2023-08-06T13:30:14;11.17;;;2.50;;
3573;SDS011;1801;51.050;6.246;2023-08-06T13:32:39;3.70;;;1.03;;
3573;SDS011;1801;51.050;6.246;2023-08-06T13:35:04;5.23;;;1.37;;
3573;SDS011;1801;51.050;6.246;2023-08-06T13:37:29;6.73;;;1.73;;
3573;SDS011;1801;51.050;6.246;2023-08-06T13:39:55;2.60;;;1.37;;
3573;SDS011;1801;51.050;6.246;2023-08-06T13:42:20;2.50;;;1.10;;
3573;SDS011;1801;51.050;6.246;2023-08-06T13:44:45;6.07;;;1.47;;
3573;SDS011;1801;51.050;6.246;2023-08-06T13:47:10;3.73;;;1.50;;
3573;SDS011;1801;51.050;6.246;2023-08-06T13:49:35;2.20;;;1.60;;
3573;SDS011;1801;51.050;6.246;2023-08-06T13:52:01;2.87;;;1.10;;
3573;SDS011;1801;51.050;6.246;2023-08-06T13:54:26;7.50;;;1.17;;
3573;SDS011;1801;51.050;6.246;2023-08-06T13:56:51;3.63;;;1.40;;
3573;SDS011;1801;51.050;6.246;2023-08-06T13:59:18;5.13;;;1.00;;
3573;SDS011;1801;51.050;6.246;2023-08-06T14:01:44;1.10;;;0.67;;
3573;SDS011;1801;51.050;6.246;2023-08-06T14:04:10;3.70;;;0.83;;
3573;SDS011;1801;51.050;6.246;2023-08-06T14:06:35;3.23;;;0.90;;
3573;SDS011;1801;51.050;6.246;2023-08-06T14:09:00;2.00;;;1.57;;
3573;SDS011;1801;51.050;6.246;2023-08-06T14:11:25;1.60;;;0.97;;
3573;SDS011;1801;51.050;6.246;2023-08-06T14:13:50;2.20;;;1.20;;
3573;SDS011;1801;51.050;6.246;2023-08-06T14:16:16;3.80;;;0.97;;
3573;SDS011;1801;51.050;6.246;2023-08-06T14:18:41;3.70;;;1.07;;
3573;SDS011;1801;51.050;6.246;2023-08-06T14:21:06;3.40;;;0.87;;
3573;SDS011;1801;51.050;6.246;2023-08-06T14:23:31;1.70;;;0.90;;
3573;SDS011;1801;51.050;6.246;2023-08-06T14:25:56;7.00;;;1.20;;
3573;SDS011;1801;51.050;6.246;2023-08-06T14:28:22;1.47;;;0.70;;
3573;SDS011;1801;51.050;6.246;2023-08-06T14:30:47;2.57;;;1.20;;
3573;SDS011;1801;51.050;6.246;2023-08-06T14:33:12;1.70;;;0.87;;
3573;SDS011;1801;51.050;6.246;2023-08-06T14:35:37;1.27;;;0.87;;
3573;SDS011;1801;51.050;6.246;2023-08-06T14:38:03;2.50;;;0.90;;
3573;SDS011;1801;51.050;6.246;2023-08-06T14:40:28;3.53;;;1.33;;
3573;SDS011;1801;51.050;6.246;2023-08-06T14:42:58;4.63;;;1.50;;
3573;SDS011;1801;51.050;6.246;2023-08-06T14:45:23;1.47;;;1.07;;
3573;SDS011;1801;51.050;6.246;2023-08-06T14:47:48;5.37;;;1.60;;
3573;SDS011;1801;51.050;6.246;2023-08-06T14:50:14;4.20;;;1.40;;
3573;SDS011;1801;51.050;6.246;2023-08-06T14:52:39;3.30;;;1.07;;
3573;SDS011;1801;51.050;6.246;2023-08-06T14:55:04;3.43;;;1.50;;
3573;SDS011;1801;51.050;6.246;2023-08-06T14:57:30;1.93;;;1.20;;
3573;SDS011;1801;51.050;6.246;2023-08-06T14:59:55;4.23;;;1.37;;
3573;SDS011;1801;51.050;6.246;2023-08-06T15:02:21;8.63;;;1.87;;
3573;SDS011;1801;51.050;6.246;2023-08-06T15:04:46;4.83;;;1.50;;
3573;SDS011;1801;51.050;6.246;2023-08-06T15:07:12;7.50;;;1.43;;
3573;SDS011;1801;51.050;6.246;2023-08-06T15:09:37;4.30;;;1.80;;
3573;SDS011;1801;51.050;6.246;2023-08-06T15:12:02;4.28;;;2.28;;
3573;SDS011;1801;51.050;6.246;2023-08-06T15:14:27;3.10;;;1.93;;
3573;SDS011;1801;51.050;6.246;2023-08-06T15:16:53;4.07;;;2.33;;
3573;SDS011;1801;51.050;6.246;2023-08-06T15:19:20;7.77;;;1.80;;
3573;SDS011;1801;51.050;6.246;2023-08-06T15:21:46;7.23;;;2.30;;